sensor_id;sensor_type;location;lat;lon;timestamp;pressure;altitude;pressure_sealevel;temperature;humidity
27984;BME280;15317;50.360;8.726;2023-08-24T00:03:49;99709.50;;;17.61;100.00
27984;BME280;15317;50.360;8.726;2023-08-24T00:08:52;99700.53;;;17.52;100.00
27984;BME280;15317;50.360;8.726;2023-08-24T00:13:57;99693.97;;;17.47;100.00
27984;BME280;15317;50.360;8.726;2023-08-24T00:19:00;99697.94;;;17.44;100.00
27984;BME280;15317;50.360;8.726;2023-08-24T00:24:04;99689.47;;;17.39;100.00
27984;BME280;15317;50.360;8.726;2023-08-24T00:29:09;99705.41;;;17.29;100.00
27984;BME280;15317;50.360;8.726;2023-08-24T00:34:13;99694.38;;;17.22;100.00
27984;BME280;15317;50.360;8.726;2023-08-24T00:39:16;99697.31;;;17.21;100.00
27984;BME280;15317;50.360;8.726;2023-08-24T00:44:21;99689.72;;;17.23;100.00
27984;BME280;15317;50.360;8.726;2023-08-24T00:49:25;99700.34;;;17.26;100.00
27984;BME280;15317;50.360;8.726;2023-08-24T00:54:29;99684.34;;;17.36;100.00
27984;BME280;15317;50.360;8.726;2023-08-24T00:59:34;99677.56;;;17.60;100.00
27984;BME280;15317;50.360;8.726;2023-08-24T01:04:37;99689.72;;;17.72;100.00
27984;BME280;15317;50.360;8.726;2023-08-24T01:09:40;99687.41;;;17.75;100.00
27984;BME280;15317;50.360;8.726;2023-08-24T01:14:50;99692.66;;;17.70;100.00
27984;BME280;15317;50.360;8.726;2023-08-24T01:19:57;99694.72;;;17.62;100.00
27984;BME280;15317;50.360;8.726;2023-08-24T01:25:06;99714.13;;;17.60;100.00
27984;BME280;15317;50.360;8.726;2023-08-24T01:30:12;99702.75;;;17.63;100.00
27984;BME280;15317;50.360;8.726;2023-08-24T01:35:15;99697.50;;;17.68;100.00
27984;BME280;15317;50.360;8.726;2023-08-24T01:40:22;99704.50;;;17.71;100.00
27984;BME280;15317;50.360;8.726;2023-08-24T01:45:31;99696.03;;;17.66;100.00
27984;BME280;15317;50.360;8.726;2023-08-24T01:50:35;99696.81;;;17.60;100.00
27984;BME280;15317;50.360;8.726;2023-08-24T01:55:39;99698.78;;;17.45;100.00
27984;BME280;15317;50.360;8.726;2023-08-24T02:00:44;99702.84;;;17.27;100.00
27984;BME280;15317;50.360;8.726;2023-08-24T02:05:47;99698.50;;;17.12;100.00
27984;BME280;15317;50.360;8.726;2023-08-24T02:10:50;99701.31;;;16.97;100.00
27984;BME280;15317;50.360;8.726;2023-08-24T02:16:02;99696.91;;;16.81;100.00
27984;BME280;15317;50.360;8.726;2023-08-24T02:21:09;99701.88;;;16.71;100.00
27984;BME280;15317;50.360;8.726;2023-08-24T02:26:14;99698.59;;;16.61;100.00
27984;BME280;15317;50.360;8.726;2023-08-24T02:31:19;99699.44;;;16.47;100.00
27984;BME280;15317;50.360;8.726;2023-08-24T02:36:22;99694.75;;;16.41;100.00
27984;BME280;15317;50.360;8.726;2023-08-24T02:41:26;99687.66;;;16.32;100.00
27984;BME280;15317;50.360;8.726;2023-08-24T02:46:31;99685.69;;;16.26;100.00
27984;BME280;15317;50.360;8.726;2023-08-24T02:51:34;99689.09;;;16.28;100.00
27984;BME280;15317;50.360;8.726;2023-08-24T02:56:38;99677.47;;;16.26;100.00
27984;BME280;15317;50.360;8.726;2023-08-24T03:01:43;99679.00;;;16.13;100.00
27984;BME280;15317;50.360;8.726;2023-08-24T03:06:46;99668.53;;;16.02;100.00
27984;BME280;15317;50.360;8.726;2023-08-24T03:11:49;99671.91;;;16.04;100.00
27984;BME280;15317;50.360;8.726;2023-08-24T03:16:53;99671.47;;;16.01;100.00
27984;BME280;15317;50.360;8.726;2023-08-24T03:21:57;99680.72;;;16.00;100.00
27984;BME280;15317;50.360;8.726;2023-08-24T03:27:00;99674.38;;;15.99;100.00
27984;BME280;15317;50.360;8.726;2023-08-24T03:32:05;99678.56;;;15.95;100.00
27984;BME280;15317;50.360;8.726;2023-08-24T03:37:08;99668.25;;;15.97;100.00
27984;BME280;15317;50.360;8.726;2023-08-24T03:42:11;99662.31;;;15.94;100.00
27984;BME280;15317;50.360;8.726;2023-08-24T03:47:16;99665.50;;;15.97;100.00
27984;BME280;15317;50.360;8.726;2023-08-24T03:52:19;99663.06;;;16.02;100.00
27984;BME280;15317;50.360;8.726;2023-08-24T03:57:23;99653.13;;;16.16;100.00
27984;BME280;15317;50.360;8.726;2023-08-24T04:02:28;99659.13;;;16.26;100.00
27984;BME280;15317;50.360;8.726;2023-08-24T04:07:31;99650.97;;;16.33;100.00
27984;BME280;15317;50.360;8.726;2023-08-24T04:12:35;99651.66;;;16.35;100.00
27984;BME280;15317;50.360;8.726;2023-08-24T04:17:40;99642.38;;;16.36;100.00
27984;BME280;15317;50.360;8.726;2023-08-24T04:22:45;99631.03;;;16.39;100.00
27984;BME280;15317;50.360;8.726;2023-08-24T04:27:49;99638.09;;;16.48;100.00
27984;BME280;15317;50.360;8.726;2023-08-24T04:32:54;99628.34;;;16.60;100.00
27984;BME280;15317;50.360;8.726;2023-08-24T04:37:57;99596.88;;;16.77;100.00
27984;BME280;15317;50.360;8.726;2023-08-24T04:43:00;99591.69;;;16.89;100.00
27984;BME280;15317;50.360;8.726;2023-08-24T04:48:07;99570.03;;;17.01;100.00
27984;BME280;15317;50.360;8.726;2023-08-24T04:53:11;99600.88;;;17.03;100.00
27984;BME280;15317;50.360;8.726;2023-08-24T04:58:15;99624.78;;;17.09;100.00
27984;BME280;15317;50.360;8.726;2023-08-24T05:03:20;99649.97;;;17.12;100.00
27984;BME280;15317;50.360;8.726;2023-08-24T05:08:23;99651.06;;;17.18;100.00
27984;BME280;15317;50.360;8.726;2023-08-24T05:13:26;99682.03;;;17.12;100.00
27984;BME280;15317;50.360;8.726;2023-08-24T05:18:31;99696.16;;;17.09;100.00
27984;BME280;15317;50.360;8.726;2023-08-24T05:23:35;99722.53;;;17.10;100.00
27984;BME280;15317;50.360;8.726;2023-08-24T05:28:39;99732.34;;;17.19;100.00
27984;BME280;15317;50.360;8.726;2023-08-24T05:33:43;99729.94;;;17.30;100.00
27984;BME280;15317;50.360;8.726;2023-08-24T05:38:47;99739.63;;;17.54;100.00
27984;BME280;15317;50.360;8.726;2023-08-24T05:43:53;99732.53;;;17.88;100.00
27984;BME280;15317;50.360;8.726;2023-08-24T05:48:58;99728.72;;;18.23;100.00
27984;BME280;15317;50.360;8.726;2023-08-24T05:54:02;99718.34;;;18.60;100.00
27984;BME280;15317;50.360;8.726;2023-08-24T05:59:05;99717.19;;;18.95;100.00
27984;BME280;15317;50.360;8.726;2023-08-24T06:04:10;99729.28;;;19.20;100.00
27984;BME280;15317;50.360;8.726;2023-08-24T06:09:14;99741.63;;;19.38;100.00
27984;BME280;15317;50.360;8.726;2023-08-24T06:14:18;99746.69;;;19.41;100.00
27984;BME280;15317;50.360;8.726;2023-08-24T06:19:22;99744.97;;;19.20;100.00
27984;BME280;15317;50.360;8.726;2023-08-24T06:24:26;99748.09;;;18.97;100.00
27984;BME280;15317;50.360;8.726;2023-08-24T06:29:29;99733.88;;;18.87;100.00
27984;BME280;15317;50.360;8.726;2023-08-24T06:34:34;99726.41;;;18.68;100.00
27984;BME280;15317;50.360;8.726;2023-08-24T06:39:37;99719.41;;;18.59;100.00
27984;BME280;15317;50.360;8.726;2023-08-24T06:44:41;99727.66;;;18.59;100.00
27984;BME280;15317;50.360;8.726;2023-08-24T06:49:46;99712.09;;;18.44;100.00
27984;BME280;15317;50.360;8.726;2023-08-24T06:54:49;99694.34;;;18.40;100.00
27984;BME280;15317;50.360;8.726;2023-08-24T06:59:56;99696.41;;;18.32;100.00
27984;BME280;15317;50.360;8.726;2023-08-24T07:05:00;99685.59;;;18.30;100.00
27984;BME280;15317;50.360;8.726;2023-08-24T07:10:07;99666.78;;;18.27;100.00
27984;BME280;15317;50.360;8.726;2023-08-24T07:15:10;99624.06;;;18.31;100.00
27984;BME280;15317;50.360;8.726;2023-08-24T07:20:15;99625.09;;;18.30;100.00
27984;BME280;15317;50.360;8.726;2023-08-24T07:25:19;99633.66;;;18.48;100.00
27984;BME280;15317;50.360;8.726;2023-08-24T07:30:24;99639.84;;;18.77;100.00
27984;BME280;15317;50.360;8.726;2023-08-24T07:35:36;99624.56;;;19.86;100.00
27984;BME280;15317;50.360;8.726;2023-08-24T07:40:39;99614.28;;;20.64;100.00
27984;BME280;15317;50.360;8.726;2023-08-24T07:45:43;99611.16;;;20.54;100.00
27984;BME280;15317;50.360;8.726;2023-08-24T07:50:47;99613.22;;;20.65;100.00
27984;BME280;15317;50.360;8.726;2023-08-24T07:55:52;99598.56;;;20.33;100.00
27984;BME280;15317;50.360;8.726;2023-08-24T08:00:56;99596.84;;;20.39;100.00
27984;BME280;15317;50.360;8.726;2023-08-24T08:06:00;99595.34;;;20.30;100.00
27984;BME280;15317;50.360;8.726;2023-08-24T08:11:03;99595.34;;;20.68;100.00
27984;BME280;15317;50.360;8.726;2023-08-24T08:16:07;99580.66;;;21.05;100.00
27984;BME280;15317;50.360;8.726;2023-08-24T08:21:15;99567.75;;;21.24;100.00
27984;BME280;15317;50.360;8.726;2023-08-24T08:26:23;99537.56;;;22.02;100.00
27984;BME280;15317;50.360;8.726;2023-08-24T08:31:26;99529.25;;;23.27;100.00
27984;BME280;15317;50.360;8.726;2023-08-24T08:36:31;99552.47;;;23.84;95.98
27984;BME280;15317;50.360;8.726;2023-08-24T08:41:41;99559.38;;;23.81;93.35
27984;BME280;15317;50.360;8.726;2023-08-24T08:46:45;99560.03;;;24.68;88.53
27984;BME280;15317;50.360;8.726;2023-08-24T08:51:50;99552.00;;;25.50;80.83
27984;BME280;15317;50.360;8.726;2023-08-24T08:56:55;99547.59;;;25.54;86.88
27984;BME280;15317;50.360;8.726;2023-08-24T09:02:00;99547.34;;;26.38;72.22
27984;BME280;15317;50.360;8.726;2023-08-24T09:07:05;99538.25;;;26.48;77.14
27984;BME280;15317;50.360;8.726;2023-08-24T09:12:13;99537.09;;;26.70;66.72
27984;BME280;15317;50.360;8.726;2023-08-24T09:17:20;99531.16;;;26.62;74.67
27984;BME280;15317;50.360;8.726;2023-08-24T09:22:25;99535.00;;;27.51;77.04
27984;BME280;15317;50.360;8.726;2023-08-24T09:27:28;99530.09;;;28.26;61.16
27984;BME280;15317;50.360;8.726;2023-08-24T09:32:32;99515.91;;;27.70;65.01
27984;BME280;15317;50.360;8.726;2023-08-24T09:37:37;99513.81;;;28.08;60.22
27984;BME280;15317;50.360;8.726;2023-08-24T09:42:42;99499.78;;;27.87;63.24
27984;BME280;15317;50.360;8.726;2023-08-24T09:47:49;99492.19;;;28.60;56.30
27984;BME280;15317;50.360;8.726;2023-08-24T09:52:58;99476.81;;;28.48;60.98
27984;BME280;15317;50.360;8.726;2023-08-24T09:58:07;99463.44;;;28.80;57.24
27984;BME280;15317;50.360;8.726;2023-08-24T10:03:15;99462.31;;;29.12;54.88
27984;BME280;15317;50.360;8.726;2023-08-24T10:08:27;99440.19;;;29.45;55.01
27984;BME280;15317;50.360;8.726;2023-08-24T10:13:36;99449.72;;;29.39;54.67
27984;BME280;15317;50.360;8.726;2023-08-24T10:18:42;99443.84;;;29.41;53.14
27984;BME280;15317;50.360;8.726;2023-08-24T10:23:47;99429.53;;;30.12;48.83
27984;BME280;15317;50.360;8.726;2023-08-24T10:28:50;99425.72;;;29.93;48.63
27984;BME280;15317;50.360;8.726;2023-08-24T10:33:55;99420.97;;;29.93;47.41
27984;BME280;15317;50.360;8.726;2023-08-24T10:39:03;99399.16;;;29.80;53.28
27984;BME280;15317;50.360;8.726;2023-08-24T10:44:20;99404.59;;;29.56;49.33
27984;BME280;15317;50.360;8.726;2023-08-24T10:49:29;99417.78;;;29.30;55.34
27984;BME280;15317;50.360;8.726;2023-08-24T10:54:42;99411.16;;;28.65;52.51
27984;BME280;15317;50.360;8.726;2023-08-24T10:59:45;99404.47;;;28.51;57.48
27984;BME280;15317;50.360;8.726;2023-08-24T11:05:06;99407.25;;;28.56;54.58
27984;BME280;15317;50.360;8.726;2023-08-24T11:10:12;99411.16;;;28.50;55.29
27984;BME280;15317;50.360;8.726;2023-08-24T11:15:29;99412.81;;;28.41;56.69
27984;BME280;15317;50.360;8.726;2023-08-24T11:20:32;99393.84;;;28.48;57.38
27984;BME280;15317;50.360;8.726;2023-08-24T11:25:37;99384.84;;;29.07;54.12
27984;BME280;15317;50.360;8.726;2023-08-24T11:30:42;99396.25;;;29.31;50.60
27984;BME280;15317;50.360;8.726;2023-08-24T11:35:46;99382.56;;;29.39;52.61
27984;BME280;15317;50.360;8.726;2023-08-24T11:40:51;99377.78;;;29.30;54.37
27984;BME280;15317;50.360;8.726;2023-08-24T11:45:54;99365.81;;;29.14;57.49
27984;BME280;15317;50.360;8.726;2023-08-24T11:50:58;99350.28;;;29.57;54.44
27984;BME280;15317;50.360;8.726;2023-08-24T11:56:03;99335.53;;;29.41;55.21
27984;BME280;15317;50.360;8.726;2023-08-24T12:01:08;99338.41;;;29.75;51.82
27984;BME280;15317;50.360;8.726;2023-08-24T12:06:12;99319.41;;;29.13;53.70
27984;BME280;15317;50.360;8.726;2023-08-24T12:11:18;99318.75;;;29.31;51.15
27984;BME280;15317;50.360;8.726;2023-08-24T12:16:22;99318.19;;;29.39;52.89
27984;BME280;15317;50.360;8.726;2023-08-24T12:21:26;99319.56;;;29.47;50.74
27984;BME280;15317;50.360;8.726;2023-08-24T12:26:33;99324.69;;;29.79;53.04
27984;BME280;15317;50.360;8.726;2023-08-24T12:31:42;99307.84;;;29.40;51.48
27984;BME280;15317;50.360;8.726;2023-08-24T12:36:45;99299.97;;;29.42;50.25
27984;BME280;15317;50.360;8.726;2023-08-24T12:41:50;99289.94;;;29.36;52.16
27984;BME280;15317;50.360;8.726;2023-08-24T12:46:53;99288.78;;;29.47;55.71
27984;BME280;15317;50.360;8.726;2023-08-24T12:51:56;99280.78;;;29.15;52.04
27984;BME280;15317;50.360;8.726;2023-08-24T12:57:01;99292.59;;;29.02;53.69
27984;BME280;15317;50.360;8.726;2023-08-24T13:02:05;99304.63;;;28.97;52.49
27984;BME280;15317;50.360;8.726;2023-08-24T13:07:08;99304.94;;;28.71;57.17
27984;BME280;15317;50.360;8.726;2023-08-24T13:12:13;99292.41;;;28.43;55.59
27984;BME280;15317;50.360;8.726;2023-08-24T13:17:16;99294.94;;;28.29;56.36
27984;BME280;15317;50.360;8.726;2023-08-24T13:22:19;99266.44;;;28.42;64.00
27984;BME280;15317;50.360;8.726;2023-08-24T13:27:24;99270.88;;;28.53;66.74
27984;BME280;15317;50.360;8.726;2023-08-24T13:32:27;99272.56;;;28.54;68.86
27984;BME280;15317;50.360;8.726;2023-08-24T13:37:31;99278.72;;;27.96;70.99
27984;BME280;15317;50.360;8.726;2023-08-24T13:42:36;99292.34;;;27.67;79.57
27984;BME280;15317;50.360;8.726;2023-08-24T13:47:39;99315.78;;;27.66;73.60
27984;BME280;15317;50.360;8.726;2023-08-24T13:52:43;99320.94;;;27.32;78.07
27984;BME280;15317;50.360;8.726;2023-08-24T13:57:47;99326.47;;;27.17;77.19
27984;BME280;15317;50.360;8.726;2023-08-24T14:02:51;99332.00;;;27.06;74.82
27984;BME280;15317;50.360;8.726;2023-08-24T14:07:54;99315.13;;;26.81;80.67
27984;BME280;15317;50.360;8.726;2023-08-24T14:12:59;99283.88;;;26.74;84.43
27984;BME280;15317;50.360;8.726;2023-08-24T14:18:02;99269.88;;;26.69;81.29
27984;BME280;15317;50.360;8.726;2023-08-24T14:23:06;99241.78;;;26.75;84.29
27984;BME280;15317;50.360;8.726;2023-08-24T14:28:11;99185.97;;;26.55;90.28
27984;BME280;15317;50.360;8.726;2023-08-24T14:33:14;99093.44;;;26.43;80.35
27984;BME280;15317;50.360;8.726;2023-08-24T14:38:17;99024.66;;;26.39;77.55
27984;BME280;15317;50.360;8.726;2023-08-24T14:43:22;99056.63;;;26.26;78.62
27984;BME280;15317;50.360;8.726;2023-08-24T14:48:25;99164.28;;;26.20;79.92
27984;BME280;15317;50.360;8.726;2023-08-24T14:53:28;99187.63;;;26.09;80.19
27984;BME280;15317;50.360;8.726;2023-08-24T14:58:33;99208.16;;;25.98;83.03
27984;BME280;15317;50.360;8.726;2023-08-24T15:03:36;99277.75;;;26.03;90.50
27984;BME280;15317;50.360;8.726;2023-08-24T15:08:39;99314.84;;;25.82;85.20
27984;BME280;15317;50.360;8.726;2023-08-24T15:13:44;99341.88;;;25.60;84.03
27984;BME280;15317;50.360;8.726;2023-08-24T15:18:47;99311.13;;;25.49;81.33
27984;BME280;15317;50.360;8.726;2023-08-24T15:23:51;99293.69;;;25.32;88.92
27984;BME280;15317;50.360;8.726;2023-08-24T15:29:08;99264.09;;;25.21;93.20
27984;BME280;15317;50.360;8.726;2023-08-24T15:34:13;99226.66;;;25.29;88.96
27984;BME280;15317;50.360;8.726;2023-08-24T15:39:16;99192.00;;;25.36;90.78
27984;BME280;15317;50.360;8.726;2023-08-24T15:44:20;99161.94;;;25.33;90.16
27984;BME280;15317;50.360;8.726;2023-08-24T15:49:23;99149.13;;;25.32;93.99
27984;BME280;15317;50.360;8.726;2023-08-24T15:54:27;99124.09;;;25.32;94.21
27984;BME280;15317;50.360;8.726;2023-08-24T15:59:32;99101.13;;;25.10;99.48
27984;BME280;15317;50.360;8.726;2023-08-24T16:04:36;99121.97;;;24.86;100.00
27984;BME280;15317;50.360;8.726;2023-08-24T16:09:39;99139.16;;;24.83;94.68
27984;BME280;15317;50.360;8.726;2023-08-24T16:14:44;99151.19;;;24.66;93.28
27984;BME280;15317;50.360;8.726;2023-08-24T16:19:47;99211.50;;;24.49;93.18
27984;BME280;15317;50.360;8.726;2023-08-24T16:24:51;99243.13;;;24.48;91.65
27984;BME280;15317;50.360;8.726;2023-08-24T16:29:56;99202.91;;;24.51;91.20
27984;BME280;15317;50.360;8.726;2023-08-24T16:35:00;99124.66;;;24.32;100.00
27984;BME280;15317;50.360;8.726;2023-08-24T16:40:04;99098.72;;;24.05;100.00
27984;BME280;15317;50.360;8.726;2023-08-24T16:45:10;99115.25;;;23.78;100.00
27984;BME280;15317;50.360;8.726;2023-08-24T16:50:14;99121.66;;;23.45;100.00
27984;BME280;15317;50.360;8.726;2023-08-24T16:55:17;99121.78;;;23.21;100.00
27984;BME280;15317;50.360;8.726;2023-08-24T17:00:22;99128.25;;;23.10;100.00
27984;BME280;15317;50.360;8.726;2023-08-24T17:05:26;99123.78;;;22.93;100.00
27984;BME280;15317;50.360;8.726;2023-08-24T17:10:30;99120.41;;;22.91;100.00
27984;BME280;15317;50.360;8.726;2023-08-24T17:15:35;99113.44;;;22.88;100.00
27984;BME280;15317;50.360;8.726;2023-08-24T17:20:38;99108.66;;;22.83;100.00
27984;BME280;15317;50.360;8.726;2023-08-24T17:25:44;99111.44;;;22.72;100.00
27984;BME280;15317;50.360;8.726;2023-08-24T17:30:51;99114.09;;;22.67;100.00
27984;BME280;15317;50.360;8.726;2023-08-24T17:35:55;99071.56;;;22.56;100.00
27984;BME280;15317;50.360;8.726;2023-08-24T17:41:01;99096.94;;;22.53;100.00
27984;BME280;15317;50.360;8.726;2023-08-24T17:46:06;99167.72;;;22.49;100.00
27984;BME280;15317;50.360;8.726;2023-08-24T17:51:09;99278.66;;;22.48;100.00
27984;BME280;15317;50.360;8.726;2023-08-24T17:56:13;99261.34;;;22.40;100.00
27984;BME280;15317;50.360;8.726;2023-08-24T18:01:18;99255.47;;;22.02;100.00
27984;BME280;15317;50.360;8.726;2023-08-24T18:06:21;99203.81;;;21.61;100.00
27984;BME280;15317;50.360;8.726;2023-08-24T18:11:25;99156.50;;;21.16;100.00
27984;BME280;15317;50.360;8.726;2023-08-24T18:16:30;99130.13;;;21.02;100.00
27984;BME280;15317;50.360;8.726;2023-08-24T18:21:33;99111.22;;;20.75;100.00
27984;BME280;15317;50.360;8.726;2023-08-24T18:26:37;99107.91;;;20.55;100.00
27984;BME280;15317;50.360;8.726;2023-08-24T18:31:42;99097.53;;;20.39;100.00
27984;BME280;15317;50.360;8.726;2023-08-24T18:36:45;99079.56;;;20.30;100.00
27984;BME280;15317;50.360;8.726;2023-08-24T18:41:49;99064.91;;;20.18;100.00
27984;BME280;15317;50.360;8.726;2023-08-24T18:46:54;99080.19;;;20.13;100.00
27984;BME280;15317;50.360;8.726;2023-08-24T18:51:57;99067.03;;;20.16;100.00
27984;BME280;15317;50.360;8.726;2023-08-24T18:57:00;99048.88;;;20.08;100.00
27984;BME280;15317;50.360;8.726;2023-08-24T19:02:05;99042.69;;;19.94;100.00
27984;BME280;15317;50.360;8.726;2023-08-24T19:07:09;99028.25;;;19.81;100.00
27984;BME280;15317;50.360;8.726;2023-08-24T19:12:13;99043.34;;;19.78;100.00
27984;BME280;15317;50.360;8.726;2023-08-24T19:17:18;99023.88;;;19.73;100.00
27984;BME280;15317;50.360;8.726;2023-08-24T19:22:21;99044.00;;;19.73;100.00
27984;BME280;15317;50.360;8.726;2023-08-24T19:27:25;99066.28;;;19.72;100.00
27984;BME280;15317;50.360;8.726;2023-08-24T19:32:30;99053.41;;;19.66;100.00
27984;BME280;15317;50.360;8.726;2023-08-24T19:37:34;99053.03;;;19.62;100.00
27984;BME280;15317;50.360;8.726;2023-08-24T19:42:37;99035.59;;;19.50;100.00
27984;BME280;15317;50.360;8.726;2023-08-24T19:47:42;99039.97;;;19.33;100.00
27984;BME280;15317;50.360;8.726;2023-08-24T19:52:46;99054.00;;;19.25;100.00
27984;BME280;15317;50.360;8.726;2023-08-24T19:57:49;99072.13;;;19.14;100.00
27984;BME280;15317;50.360;8.726;2023-08-24T20:02:54;99077.47;;;19.09;100.00
27984;BME280;15317;50.360;8.726;2023-08-24T20:07:58;99058.25;;;19.03;100.00
27984;BME280;15317;50.360;8.726;2023-08-24T20:13:01;99054.94;;;18.94;100.00
27984;BME280;15317;50.360;8.726;2023-08-24T20:18:06;99087.34;;;18.92;100.00
27984;BME280;15317;50.360;8.726;2023-08-24T20:23:09;99080.38;;;18.89;100.00
27984;BME280;15317;50.360;8.726;2023-08-24T20:28:12;99086.50;;;18.91;100.00
27984;BME280;15317;50.360;8.726;2023-08-24T20:33:17;99088.66;;;18.89;100.00
27984;BME280;15317;50.360;8.726;2023-08-24T20:38:20;99098.41;;;18.85;100.00
27984;BME280;15317;50.360;8.726;2023-08-24T20:43:24;99083.19;;;18.83;100.00
27984;BME280;15317;50.360;8.726;2023-08-24T20:48:29;99085.75;;;18.78;100.00
27984;BME280;15317;50.360;8.726;2023-08-24T20:53:33;99080.28;;;18.71;100.00
27984;BME280;15317;50.360;8.726;2023-08-24T20:58:37;99070.59;;;18.69;100.00
27984;BME280;15317;50.360;8.726;2023-08-24T21:03:41;99095.56;;;18.67;100.00
27984;BME280;15317;50.360;8.726;2023-08-24T21:08:46;99100.66;;;18.64;100.00
27984;BME280;15317;50.360;8.726;2023-08-24T21:14:04;99084.16;;;18.64;100.00
27984;BME280;15317;50.360;8.726;2023-08-24T21:19:08;99086.28;;;18.62;100.00
27984;BME280;15317;50.360;8.726;2023-08-24T21:24:12;99074.66;;;18.60;100.00
27984;BME280;15317;50.360;8.726;2023-08-24T21:29:16;99078.25;;;18.60;100.00
27984;BME280;15317;50.360;8.726;2023-08-24T21:34:22;99073.59;;;18.61;100.00
27984;BME280;15317;50.360;8.726;2023-08-24T21:39:25;99074.84;;;18.65;100.00
27984;BME280;15317;50.360;8.726;2023-08-24T21:44:29;99068.28;;;18.66;100.00
27984;BME280;15317;50.360;8.726;2023-08-24T21:49:34;99071.47;;;18.63;100.00
27984;BME280;15317;50.360;8.726;2023-08-24T21:54:37;99075.91;;;18.64;100.00
27984;BME280;15317;50.360;8.726;2023-08-24T21:59:40;99102.81;;;18.62;100.00
27984;BME280;15317;50.360;8.726;2023-08-24T22:04:45;99099.84;;;18.57;100.00
27984;BME280;15317;50.360;8.726;2023-08-24T22:09:48;99109.19;;;18.49;100.00
27984;BME280;15317;50.360;8.726;2023-08-24T22:14:52;99120.19;;;18.49;100.00
27984;BME280;15317;50.360;8.726;2023-08-24T22:19:57;99115.56;;;18.36;100.00
27984;BME280;15317;50.360;8.726;2023-08-24T22:25:00;99123.22;;;18.34;100.00
27984;BME280;15317;50.360;8.726;2023-08-24T22:30:06;99135.69;;;18.30;100.00
27984;BME280;15317;50.360;8.726;2023-08-24T22:35:12;99144.41;;;18.27;100.00
27984;BME280;15317;50.360;8.726;2023-08-24T22:40:18;99139.97;;;18.26;100.00
27984;BME280;15317;50.360;8.726;2023-08-24T22:45:21;99142.72;;;18.26;100.00
27984;BME280;15317;50.360;8.726;2023-08-24T22:50:26;99149.09;;;18.20;100.00
27984;BME280;15317;50.360;8.726;2023-08-24T22:55:29;99152.69;;;18.14;100.00
27984;BME280;15317;50.360;8.726;2023-08-24T23:00:33;99163.94;;;18.06;100.00
27984;BME280;15317;50.360;8.726;2023-08-24T23:05:37;99171.16;;;17.94;100.00
27984;BME280;15317;50.360;8.726;2023-08-24T23:10:40;99167.78;;;17.85;100.00
27984;BME280;15317;50.360;8.726;2023-08-24T23:15:44;99163.13;;;17.86;100.00
27984;BME280;15317;50.360;8.726;2023-08-24T23:20:49;99153.22;;;17.78;100.00
27984;BME280;15317;50.360;8.726;2023-08-24T23:25:53;99153.41;;;17.76;100.00
27984;BME280;15317;50.360;8.726;2023-08-24T23:30:56;99151.72;;;17.75;100.00
27984;BME280;15317;50.360;8.726;2023-08-24T23:36:01;99153.88;;;17.73;100.00
27984;BME280;15317;50.360;8.726;2023-08-24T23:41:04;99129.97;;;17.67;100.00
27984;BME280;15317;50.360;8.726;2023-08-24T23:46:07;99131.47;;;17.63;100.00
27984;BME280;15317;50.360;8.726;2023-08-24T23:51:12;99124.50;;;17.61;100.00
27984;BME280;15317;50.360;8.726;2023-08-24T23:56:15;99127.66;;;17.64;100.00
